sensor_id;sensor_type;location;lat;lon;timestamp;P1;durP1;ratioP1;P2;durP2;ratioP2
2029;SDS011;1020;48.854;8.830;2023-05-29T00:02:00;6.43;;;5.73;;
2029;SDS011;1020;48.854;8.830;2023-05-29T00:04:27;7.60;;;5.87;;
2029;SDS011;1020;48.854;8.830;2023-05-29T00:06:54;6.50;;;5.90;;
2029;SDS011;1020;48.854;8.830;2023-05-29T00:09:22;7.30;;;6.30;;
2029;SDS011;1020;48.854;8.830;2023-05-29T00:11:50;7.00;;;5.40;;
2029;SDS011;1020;48.854;8.830;2023-05-29T00:14:17;5.97;;;5.37;;
2029;SDS011;1020;48.854;8.830;2023-05-29T00:16:44;6.57;;;5.90;;
2029;SDS011;1020;48.854;8.830;2023-05-29T00:19:11;8.03;;;6.40;;
2029;SDS011;1020;48.854;8.830;2023-05-29T00:21:38;6.47;;;5.63;;
2029;SDS011;1020;48.854;8.830;2023-05-29T00:24:05;6.83;;;6.13;;
2029;SDS011;1020;48.854;8.830;2023-05-29T00:26:33;7.17;;;6.10;;
2029;SDS011;1020;48.854;8.830;2023-05-29T00:29:00;6.77;;;5.80;;
2029;SDS011;1020;48.854;8.830;2023-05-29T00:31:27;5.33;;;4.80;;
2029;SDS011;1020;48.854;8.830;2023-05-29T00:33:54;6.63;;;6.03;;
2029;SDS011;1020;48.854;8.830;2023-05-29T00:36:21;6.43;;;5.63;;
2029;SDS011;1020;48.854;8.830;2023-05-29T00:38:48;4.97;;;4.20;;
2029;SDS011;1020;48.854;8.830;2023-05-29T00:41:15;5.00;;;4.60;;
2029;SDS011;1020;48.854;8.830;2023-05-29T00:43:43;7.20;;;5.40;;
2029;SDS011;1020;48.854;8.830;2023-05-29T00:46:10;11.60;;;4.80;;
2029;SDS011;1020;48.854;8.830;2023-05-29T00:48:39;9.13;;;6.50;;
2029;SDS011;1020;48.854;8.830;2023-05-29T00:51:07;6.17;;;5.57;;
2029;SDS011;1020;48.854;8.830;2023-05-29T00:53:36;5.30;;;4.80;;
2029;SDS011;1020;48.854;8.830;2023-05-29T00:56:03;8.37;;;5.03;;
2029;SDS011;1020;48.854;8.830;2023-05-29T00:58:32;6.37;;;5.70;;
2029;SDS011;1020;48.854;8.830;2023-05-29T01:01:01;6.60;;;5.40;;
2029;SDS011;1020;48.854;8.830;2023-05-29T01:03:28;5.90;;;5.30;;
2029;SDS011;1020;48.854;8.830;2023-05-29T01:05:57;5.70;;;4.70;;
2029;SDS011;1020;48.854;8.830;2023-05-29T01:08:24;6.53;;;5.93;;
2029;SDS011;1020;48.854;8.830;2023-05-29T01:10:51;5.73;;;5.23;;
2029;SDS011;1020;48.854;8.830;2023-05-29T01:13:23;7.30;;;6.47;;
2029;SDS011;1020;48.854;8.830;2023-05-29T01:15:57;6.07;;;5.47;;
2029;SDS011;1020;48.854;8.830;2023-05-29T01:18:31;6.47;;;5.87;;
2029;SDS011;1020;48.854;8.830;2023-05-29T01:21:06;6.80;;;5.20;;
2029;SDS011;1020;48.854;8.830;2023-05-29T01:23:53;5.87;;;5.37;;
2029;SDS011;1020;48.854;8.830;2023-05-29T01:26:37;5.90;;;5.37;;
2029;SDS011;1020;48.854;8.830;2023-05-29T01:29:13;5.33;;;4.83;;
2029;SDS011;1020;48.854;8.830;2023-05-29T01:31:41;5.43;;;4.27;;
2029;SDS011;1020;48.854;8.830;2023-05-29T01:34:09;5.77;;;4.67;;
2029;SDS011;1020;48.854;8.830;2023-05-29T01:36:36;5.13;;;4.50;;
2029;SDS011;1020;48.854;8.830;2023-05-29T01:39:03;4.77;;;4.37;;
2029;SDS011;1020;48.854;8.830;2023-05-29T01:41:31;5.10;;;4.60;;
2029;SDS011;1020;48.854;8.830;2023-05-29T01:44:01;5.17;;;4.43;;
2029;SDS011;1020;48.854;8.830;2023-05-29T01:46:33;5.30;;;4.80;;
2029;SDS011;1020;48.854;8.830;2023-05-29T01:49:01;5.40;;;4.30;;
2029;SDS011;1020;48.854;8.830;2023-05-29T01:51:28;5.20;;;4.10;;
2029;SDS011;1020;48.854;8.830;2023-05-29T01:53:57;4.27;;;3.87;;
2029;SDS011;1020;48.854;8.830;2023-05-29T01:56:24;3.93;;;3.63;;
2029;SDS011;1020;48.854;8.830;2023-05-29T01:58:52;5.73;;;5.00;;
2029;SDS011;1020;48.854;8.830;2023-05-29T02:01:20;4.40;;;4.00;;
2029;SDS011;1020;48.854;8.830;2023-05-29T02:03:47;5.17;;;4.00;;
2029;SDS011;1020;48.854;8.830;2023-05-29T02:06:15;5.57;;;5.07;;
2029;SDS011;1020;48.854;8.830;2023-05-29T02:08:41;5.90;;;4.70;;
2029;SDS011;1020;48.854;8.830;2023-05-29T02:11:08;6.80;;;4.73;;
2029;SDS011;1020;48.854;8.830;2023-05-29T02:13:35;5.17;;;4.70;;
2029;SDS011;1020;48.854;8.830;2023-05-29T02:16:02;4.97;;;4.47;;
2029;SDS011;1020;48.854;8.830;2023-05-29T02:18:30;6.70;;;4.40;;
2029;SDS011;1020;48.854;8.830;2023-05-29T02:20:57;5.83;;;4.80;;
2029;SDS011;1020;48.854;8.830;2023-05-29T02:23:23;8.33;;;5.90;;
2029;SDS011;1020;48.854;8.830;2023-05-29T02:25:50;7.13;;;5.20;;
2029;SDS011;1020;48.854;8.830;2023-05-29T02:28:17;5.47;;;4.40;;
2029;SDS011;1020;48.854;8.830;2023-05-29T02:30:44;5.43;;;4.43;;
2029;SDS011;1020;48.854;8.830;2023-05-29T02:33:10;4.90;;;4.40;;
2029;SDS011;1020;48.854;8.830;2023-05-29T02:35:38;6.13;;;5.07;;
2029;SDS011;1020;48.854;8.830;2023-05-29T02:38:05;5.10;;;4.60;;
2029;SDS011;1020;48.854;8.830;2023-05-29T02:40:32;5.00;;;4.33;;
2029;SDS011;1020;48.854;8.830;2023-05-29T02:42:58;5.20;;;4.70;;
2029;SDS011;1020;48.854;8.830;2023-05-29T02:45:25;4.70;;;4.30;;
2029;SDS011;1020;48.854;8.830;2023-05-29T02:47:52;6.80;;;5.23;;
2029;SDS011;1020;48.854;8.830;2023-05-29T02:50:19;6.83;;;4.57;;
2029;SDS011;1020;48.854;8.830;2023-05-29T02:52:47;5.40;;;4.70;;
2029;SDS011;1020;48.854;8.830;2023-05-29T02:55:14;6.57;;;4.87;;
2029;SDS011;1020;48.854;8.830;2023-05-29T02:57:41;8.70;;;4.80;;
2029;SDS011;1020;48.854;8.830;2023-05-29T03:00:08;4.70;;;4.30;;
2029;SDS011;1020;48.854;8.830;2023-05-29T03:02:37;6.30;;;4.50;;
2029;SDS011;1020;48.854;8.830;2023-05-29T03:05:04;5.10;;;4.30;;
2029;SDS011;1020;48.854;8.830;2023-05-29T03:07:31;4.53;;;4.13;;
2029;SDS011;1020;48.854;8.830;2023-05-29T03:09:59;5.63;;;4.77;;
2029;SDS011;1020;48.854;8.830;2023-05-29T03:12:26;5.70;;;5.10;;
2029;SDS011;1020;48.854;8.830;2023-05-29T03:14:54;4.47;;;4.07;;
2029;SDS011;1020;48.854;8.830;2023-05-29T03:17:21;5.20;;;4.43;;
2029;SDS011;1020;48.854;8.830;2023-05-29T03:19:48;5.10;;;4.30;;
2029;SDS011;1020;48.854;8.830;2023-05-29T03:22:16;4.70;;;4.30;;
2029;SDS011;1020;48.854;8.830;2023-05-29T03:24:42;4.20;;;3.53;;
2029;SDS011;1020;48.854;8.830;2023-05-29T03:27:10;4.97;;;4.30;;
2029;SDS011;1020;48.854;8.830;2023-05-29T03:29:37;5.17;;;4.67;;
2029;SDS011;1020;48.854;8.830;2023-05-29T03:32:04;4.13;;;3.83;;
2029;SDS011;1020;48.854;8.830;2023-05-29T03:34:31;4.10;;;3.80;;
2029;SDS011;1020;48.854;8.830;2023-05-29T03:36:57;5.57;;;4.27;;
2029;SDS011;1020;48.854;8.830;2023-05-29T03:39:24;6.70;;;4.33;;
2029;SDS011;1020;48.854;8.830;2023-05-29T03:41:51;6.67;;;4.20;;
2029;SDS011;1020;48.854;8.830;2023-05-29T03:44:19;5.63;;;4.70;;
2029;SDS011;1020;48.854;8.830;2023-05-29T03:46:46;7.23;;;3.80;;
2029;SDS011;1020;48.854;8.830;2023-05-29T03:49:13;5.70;;;4.03;;
2029;SDS011;1020;48.854;8.830;2023-05-29T03:51:39;7.40;;;3.80;;
2029;SDS011;1020;48.854;8.830;2023-05-29T03:54:06;5.20;;;3.80;;
2029;SDS011;1020;48.854;8.830;2023-05-29T03:56:33;4.73;;;4.27;;
2029;SDS011;1020;48.854;8.830;2023-05-29T03:59:01;7.63;;;4.47;;
2029;SDS011;1020;48.854;8.830;2023-05-29T04:01:29;5.83;;;4.30;;
2029;SDS011;1020;48.854;8.830;2023-05-29T04:03:55;6.43;;;4.50;;
2029;SDS011;1020;48.854;8.830;2023-05-29T04:06:22;4.00;;;3.70;;
2029;SDS011;1020;48.854;8.830;2023-05-29T04:08:49;5.27;;;4.40;;
2029;SDS011;1020;48.854;8.830;2023-05-29T04:11:16;5.23;;;4.73;;
2029;SDS011;1020;48.854;8.830;2023-05-29T04:13:45;5.40;;;4.80;;
2029;SDS011;1020;48.854;8.830;2023-05-29T04:16:12;5.27;;;4.87;;
2029;SDS011;1020;48.854;8.830;2023-05-29T04:18:41;4.53;;;4.00;;
2029;SDS011;1020;48.854;8.830;2023-05-29T04:21:07;4.57;;;4.17;;
2029;SDS011;1020;48.854;8.830;2023-05-29T04:23:34;4.77;;;4.30;;
2029;SDS011;1020;48.854;8.830;2023-05-29T04:26:01;4.53;;;4.10;;
2029;SDS011;1020;48.854;8.830;2023-05-29T04:28:28;5.27;;;4.40;;
2029;SDS011;1020;48.854;8.830;2023-05-29T04:30:55;6.40;;;4.70;;
2029;SDS011;1020;48.854;8.830;2023-05-29T04:33:22;4.73;;;4.20;;
2029;SDS011;1020;48.854;8.830;2023-05-29T04:35:50;4.27;;;3.97;;
2029;SDS011;1020;48.854;8.830;2023-05-29T04:38:17;4.97;;;4.47;;
2029;SDS011;1020;48.854;8.830;2023-05-29T04:40:49;4.83;;;4.43;;
2029;SDS011;1020;48.854;8.830;2023-05-29T04:43:16;5.33;;;4.83;;
2029;SDS011;1020;48.854;8.830;2023-05-29T04:45:43;5.63;;;5.07;;
2029;SDS011;1020;48.854;8.830;2023-05-29T04:48:10;5.80;;;5.20;;
2029;SDS011;1020;48.854;8.830;2023-05-29T04:50:37;4.90;;;4.50;;
2029;SDS011;1020;48.854;8.830;2023-05-29T04:53:05;5.20;;;4.40;;
2029;SDS011;1020;48.854;8.830;2023-05-29T04:55:31;6.13;;;4.90;;
2029;SDS011;1020;48.854;8.830;2023-05-29T04:57:59;4.70;;;4.00;;
2029;SDS011;1020;48.854;8.830;2023-05-29T05:00:26;4.33;;;3.93;;
2029;SDS011;1020;48.854;8.830;2023-05-29T05:02:52;5.13;;;4.40;;
2029;SDS011;1020;48.854;8.830;2023-05-29T05:05:20;8.40;;;4.93;;
2029;SDS011;1020;48.854;8.830;2023-05-29T05:07:47;7.40;;;4.93;;
2029;SDS011;1020;48.854;8.830;2023-05-29T05:10:15;4.77;;;4.40;;
2029;SDS011;1020;48.854;8.830;2023-05-29T05:12:41;5.47;;;4.93;;
2029;SDS011;1020;48.854;8.830;2023-05-29T05:15:09;4.87;;;4.47;;
2029;SDS011;1020;48.854;8.830;2023-05-29T05:17:36;4.67;;;4.27;;
2029;SDS011;1020;48.854;8.830;2023-05-29T05:20:03;5.37;;;4.30;;
2029;SDS011;1020;48.854;8.830;2023-05-29T05:22:31;6.07;;;5.50;;
2029;SDS011;1020;48.854;8.830;2023-05-29T05:24:57;4.60;;;4.20;;
2029;SDS011;1020;48.854;8.830;2023-05-29T05:27:27;6.47;;;4.70;;
2029;SDS011;1020;48.854;8.830;2023-05-29T05:29:53;5.03;;;4.60;;
2029;SDS011;1020;48.854;8.830;2023-05-29T05:32:20;5.57;;;4.80;;
2029;SDS011;1020;48.854;8.830;2023-05-29T05:34:47;7.10;;;5.20;;
2029;SDS011;1020;48.854;8.830;2023-05-29T05:37:14;4.73;;;4.23;;
2029;SDS011;1020;48.854;8.830;2023-05-29T05:39:40;4.63;;;4.23;;
2029;SDS011;1020;48.854;8.830;2023-05-29T05:42:07;4.57;;;4.00;;
2029;SDS011;1020;48.854;8.830;2023-05-29T05:44:36;5.80;;;4.27;;
2029;SDS011;1020;48.854;8.830;2023-05-29T05:47:03;6.30;;;4.47;;
2029;SDS011;1020;48.854;8.830;2023-05-29T05:49:30;4.00;;;3.70;;
2029;SDS011;1020;48.854;8.830;2023-05-29T05:51:56;4.57;;;3.50;;
2029;SDS011;1020;48.854;8.830;2023-05-29T05:54:23;4.40;;;4.00;;
2029;SDS011;1020;48.854;8.830;2023-05-29T05:56:50;3.70;;;3.40;;
2029;SDS011;1020;48.854;8.830;2023-05-29T05:59:16;3.63;;;3.33;;
2029;SDS011;1020;48.854;8.830;2023-05-29T06:01:45;4.20;;;3.63;;
2029;SDS011;1020;48.854;8.830;2023-05-29T06:04:11;4.93;;;4.10;;
2029;SDS011;1020;48.854;8.830;2023-05-29T06:06:38;5.20;;;3.70;;
2029;SDS011;1020;48.854;8.830;2023-05-29T06:09:06;3.63;;;3.33;;
2029;SDS011;1020;48.854;8.830;2023-05-29T06:11:32;4.83;;;4.20;;
2029;SDS011;1020;48.854;8.830;2023-05-29T06:13:59;4.03;;;3.57;;
2029;SDS011;1020;48.854;8.830;2023-05-29T06:16:26;4.80;;;3.77;;
2029;SDS011;1020;48.854;8.830;2023-05-29T06:18:54;3.40;;;3.10;;
2029;SDS011;1020;48.854;8.830;2023-05-29T06:21:20;4.20;;;3.80;;
2029;SDS011;1020;48.854;8.830;2023-05-29T06:23:47;4.10;;;3.70;;
2029;SDS011;1020;48.854;8.830;2023-05-29T06:26:14;3.87;;;3.23;;
2029;SDS011;1020;48.854;8.830;2023-05-29T06:28:41;4.73;;;4.33;;
2029;SDS011;1020;48.854;8.830;2023-05-29T06:31:08;5.67;;;4.03;;
2029;SDS011;1020;48.854;8.830;2023-05-29T06:33:35;4.80;;;3.20;;
2029;SDS011;1020;48.854;8.830;2023-05-29T06:36:04;3.97;;;3.57;;
2029;SDS011;1020;48.854;8.830;2023-05-29T06:38:31;4.00;;;3.67;;
2029;SDS011;1020;48.854;8.830;2023-05-29T06:40:58;4.83;;;3.30;;
2029;SDS011;1020;48.854;8.830;2023-05-29T06:43:25;4.40;;;3.57;;
2029;SDS011;1020;48.854;8.830;2023-05-29T06:45:52;4.37;;;3.90;;
2029;SDS011;1020;48.854;8.830;2023-05-29T06:48:19;3.67;;;3.10;;
2029;SDS011;1020;48.854;8.830;2023-05-29T06:50:47;4.57;;;4.17;;
2029;SDS011;1020;48.854;8.830;2023-05-29T06:53:15;3.53;;;3.23;;
2029;SDS011;1020;48.854;8.830;2023-05-29T06:55:42;5.27;;;4.00;;
2029;SDS011;1020;48.854;8.830;2023-05-29T06:58:08;3.80;;;3.47;;
2029;SDS011;1020;48.854;8.830;2023-05-29T07:00:35;4.43;;;4.03;;
2029;SDS011;1020;48.854;8.830;2023-05-29T07:03:02;4.00;;;3.60;;
2029;SDS011;1020;48.854;8.830;2023-05-29T07:05:29;4.40;;;3.63;;
2029;SDS011;1020;48.854;8.830;2023-05-29T07:07:55;4.20;;;3.33;;
2029;SDS011;1020;48.854;8.830;2023-05-29T07:10:23;4.67;;;4.27;;
2029;SDS011;1020;48.854;8.830;2023-05-29T07:12:50;4.93;;;4.40;;
2029;SDS011;1020;48.854;8.830;2023-05-29T07:15:17;4.93;;;3.90;;
2029;SDS011;1020;48.854;8.830;2023-05-29T07:17:44;3.57;;;3.10;;
2029;SDS011;1020;48.854;8.830;2023-05-29T07:20:11;4.60;;;3.50;;
2029;SDS011;1020;48.854;8.830;2023-05-29T07:22:38;3.70;;;3.40;;
2029;SDS011;1020;48.854;8.830;2023-05-29T07:25:05;4.17;;;3.87;;
2029;SDS011;1020;48.854;8.830;2023-05-29T07:27:33;4.60;;;3.33;;
2029;SDS011;1020;48.854;8.830;2023-05-29T07:30:00;3.20;;;3.00;;
2029;SDS011;1020;48.854;8.830;2023-05-29T07:32:27;4.10;;;3.70;;
2029;SDS011;1020;48.854;8.830;2023-05-29T07:34:54;3.87;;;3.43;;
2029;SDS011;1020;48.854;8.830;2023-05-29T07:37:21;4.10;;;3.57;;
2029;SDS011;1020;48.854;8.830;2023-05-29T07:39:47;3.87;;;3.50;;
2029;SDS011;1020;48.854;8.830;2023-05-29T07:42:14;5.43;;;3.47;;
2029;SDS011;1020;48.854;8.830;2023-05-29T07:44:43;3.33;;;3.03;;
2029;SDS011;1020;48.854;8.830;2023-05-29T07:47:11;3.20;;;3.00;;
2029;SDS011;1020;48.854;8.830;2023-05-29T07:49:37;3.43;;;3.13;;
2029;SDS011;1020;48.854;8.830;2023-05-29T07:52:04;3.70;;;3.40;;
2029;SDS011;1020;48.854;8.830;2023-05-29T07:54:31;4.07;;;3.67;;
2029;SDS011;1020;48.854;8.830;2023-05-29T07:56:58;3.60;;;3.23;;
2029;SDS011;1020;48.854;8.830;2023-05-29T07:59:27;5.60;;;3.23;;
2029;SDS011;1020;48.854;8.830;2023-05-29T08:01:56;3.33;;;3.13;;
2029;SDS011;1020;48.854;8.830;2023-05-29T08:04:23;4.17;;;3.87;;
2029;SDS011;1020;48.854;8.830;2023-05-29T08:06:50;3.97;;;3.60;;
2029;SDS011;1020;48.854;8.830;2023-05-29T08:09:17;3.40;;;3.10;;
2029;SDS011;1020;48.854;8.830;2023-05-29T08:11:45;3.67;;;3.37;;
2029;SDS011;1020;48.854;8.830;2023-05-29T08:14:12;3.70;;;3.47;;
2029;SDS011;1020;48.854;8.830;2023-05-29T08:16:39;3.60;;;3.30;;
2029;SDS011;1020;48.854;8.830;2023-05-29T08:19:07;3.70;;;3.40;;
2029;SDS011;1020;48.854;8.830;2023-05-29T08:21:34;3.47;;;3.17;;
2029;SDS011;1020;48.854;8.830;2023-05-29T08:24:03;4.00;;;3.60;;
2029;SDS011;1020;48.854;8.830;2023-05-29T08:26:30;4.70;;;3.70;;
2029;SDS011;1020;48.854;8.830;2023-05-29T08:28:57;3.77;;;3.30;;
2029;SDS011;1020;48.854;8.830;2023-05-29T08:31:24;4.27;;;3.97;;
2029;SDS011;1020;48.854;8.830;2023-05-29T08:33:51;3.60;;;3.30;;
2029;SDS011;1020;48.854;8.830;2023-05-29T08:36:20;4.00;;;3.60;;
2029;SDS011;1020;48.854;8.830;2023-05-29T08:38:47;3.80;;;3.50;;
2029;SDS011;1020;48.854;8.830;2023-05-29T08:41:15;3.60;;;3.40;;
2029;SDS011;1020;48.854;8.830;2023-05-29T08:43:47;4.07;;;3.77;;
2029;SDS011;1020;48.854;8.830;2023-05-29T08:46:15;4.63;;;4.17;;
2029;SDS011;1020;48.854;8.830;2023-05-29T08:48:46;3.93;;;3.63;;
2029;SDS011;1020;48.854;8.830;2023-05-29T08:51:15;5.07;;;3.60;;
2029;SDS011;1020;48.854;8.830;2023-05-29T08:53:47;4.37;;;3.60;;
2029;SDS011;1020;48.854;8.830;2023-05-29T08:56:14;4.07;;;3.77;;
2029;SDS011;1020;48.854;8.830;2023-05-29T08:58:41;3.73;;;3.43;;
2029;SDS011;1020;48.854;8.830;2023-05-29T09:01:10;4.07;;;3.73;;
2029;SDS011;1020;48.854;8.830;2023-05-29T09:03:37;4.23;;;3.70;;
2029;SDS011;1020;48.854;8.830;2023-05-29T09:06:04;4.40;;;4.00;;
2029;SDS011;1020;48.854;8.830;2023-05-29T09:08:32;5.13;;;3.97;;
2029;SDS011;1020;48.854;8.830;2023-05-29T09:11:00;4.03;;;3.73;;
2029;SDS011;1020;48.854;8.830;2023-05-29T09:13:27;4.50;;;4.10;;
2029;SDS011;1020;48.854;8.830;2023-05-29T09:15:56;4.60;;;4.07;;
2029;SDS011;1020;48.854;8.830;2023-05-29T09:18:23;4.20;;;3.90;;
2029;SDS011;1020;48.854;8.830;2023-05-29T09:20:54;5.10;;;3.43;;
2029;SDS011;1020;48.854;8.830;2023-05-29T09:23:20;4.30;;;3.90;;
2029;SDS011;1020;48.854;8.830;2023-05-29T09:25:50;4.60;;;3.60;;
2029;SDS011;1020;48.854;8.830;2023-05-29T09:28:20;4.10;;;3.50;;
2029;SDS011;1020;48.854;8.830;2023-05-29T09:30:48;4.03;;;3.70;;
2029;SDS011;1020;48.854;8.830;2023-05-29T09:33:15;3.47;;;3.20;;
2029;SDS011;1020;48.854;8.830;2023-05-29T09:35:43;3.93;;;3.63;;
2029;SDS011;1020;48.854;8.830;2023-05-29T09:38:11;4.10;;;3.80;;
2029;SDS011;1020;48.854;8.830;2023-05-29T09:40:40;5.83;;;3.70;;
2029;SDS011;1020;48.854;8.830;2023-05-29T09:43:09;5.23;;;4.23;;
2029;SDS011;1020;48.854;8.830;2023-05-29T09:45:39;3.50;;;3.30;;
2029;SDS011;1020;48.854;8.830;2023-05-29T09:48:06;3.93;;;3.43;;
2029;SDS011;1020;48.854;8.830;2023-05-29T09:50:34;4.23;;;3.63;;
2029;SDS011;1020;48.854;8.830;2023-05-29T09:53:01;3.93;;;3.63;;
2029;SDS011;1020;48.854;8.830;2023-05-29T09:55:28;4.00;;;3.60;;
2029;SDS011;1020;48.854;8.830;2023-05-29T09:57:57;4.27;;;3.90;;
2029;SDS011;1020;48.854;8.830;2023-05-29T10:00:25;4.30;;;4.00;;
2029;SDS011;1020;48.854;8.830;2023-05-29T10:02:53;3.57;;;3.30;;
2029;SDS011;1020;48.854;8.830;2023-05-29T10:05:20;4.10;;;3.70;;
2029;SDS011;1020;48.854;8.830;2023-05-29T10:07:47;4.67;;;4.27;;
2029;SDS011;1020;48.854;8.830;2023-05-29T10:10:19;4.60;;;4.20;;
2029;SDS011;1020;48.854;8.830;2023-05-29T10:12:48;4.90;;;4.47;;
2029;SDS011;1020;48.854;8.830;2023-05-29T10:15:16;5.43;;;3.67;;
2029;SDS011;1020;48.854;8.830;2023-05-29T10:17:49;4.10;;;3.60;;
2029;SDS011;1020;48.854;8.830;2023-05-29T10:20:19;4.13;;;3.80;;
2029;SDS011;1020;48.854;8.830;2023-05-29T10:22:47;4.77;;;3.70;;
2029;SDS011;1020;48.854;8.830;2023-05-29T10:25:17;5.87;;;4.40;;
2029;SDS011;1020;48.854;8.830;2023-05-29T10:27:45;7.20;;;3.93;;
2029;SDS011;1020;48.854;8.830;2023-05-29T10:30:14;4.73;;;4.30;;
2029;SDS011;1020;48.854;8.830;2023-05-29T10:32:52;3.93;;;3.63;;
2029;SDS011;1020;48.854;8.830;2023-05-29T10:35:31;4.37;;;3.93;;
2029;SDS011;1020;48.854;8.830;2023-05-29T10:38:09;4.73;;;4.30;;
2029;SDS011;1020;48.854;8.830;2023-05-29T10:40:38;4.10;;;3.80;;
2029;SDS011;1020;48.854;8.830;2023-05-29T10:43:04;5.00;;;4.13;;
2029;SDS011;1020;48.854;8.830;2023-05-29T10:45:49;5.40;;;3.73;;
2029;SDS011;1020;48.854;8.830;2023-05-29T10:51:06;3.20;;;3.00;;
2029;SDS011;1020;48.854;8.830;2023-05-29T10:53:33;3.73;;;3.27;;
2029;SDS011;1020;48.854;8.830;2023-05-29T10:56:05;4.20;;;3.80;;
2029;SDS011;1020;48.854;8.830;2023-05-29T10:58:36;4.17;;;3.83;;
2029;SDS011;1020;48.854;8.830;2023-05-29T11:01:03;4.33;;;3.93;;
2029;SDS011;1020;48.854;8.830;2023-05-29T11:03:30;3.10;;;2.90;;
2029;SDS011;1020;48.854;8.830;2023-05-29T11:05:58;3.80;;;3.50;;
2029;SDS011;1020;48.854;8.830;2023-05-29T11:08:33;4.23;;;3.67;;
2029;SDS011;1020;48.854;8.830;2023-05-29T11:11:01;4.03;;;3.33;;
2029;SDS011;1020;48.854;8.830;2023-05-29T11:13:31;5.00;;;4.50;;
2029;SDS011;1020;48.854;8.830;2023-05-29T11:16:04;3.63;;;3.30;;
2029;SDS011;1020;48.854;8.830;2023-05-29T11:18:37;3.80;;;3.30;;
2029;SDS011;1020;48.854;8.830;2023-05-29T11:21:06;3.43;;;3.00;;
2029;SDS011;1020;48.854;8.830;2023-05-29T11:23:51;2.97;;;2.77;;
2029;SDS011;1020;48.854;8.830;2023-05-29T11:26:19;3.70;;;3.40;;
2029;SDS011;1020;48.854;8.830;2023-05-29T11:28:48;4.23;;;3.67;;
2029;SDS011;1020;48.854;8.830;2023-05-29T11:31:15;3.97;;;3.50;;
2029;SDS011;1020;48.854;8.830;2023-05-29T11:33:47;3.73;;;3.20;;
2029;SDS011;1020;48.854;8.830;2023-05-29T11:36:16;3.57;;;3.30;;
2029;SDS011;1020;48.854;8.830;2023-05-29T11:38:44;3.97;;;3.57;;
2029;SDS011;1020;48.854;8.830;2023-05-29T11:41:12;3.50;;;3.20;;
2029;SDS011;1020;48.854;8.830;2023-05-29T11:43:39;3.40;;;3.10;;
2029;SDS011;1020;48.854;8.830;2023-05-29T11:46:15;4.80;;;3.43;;
2029;SDS011;1020;48.854;8.830;2023-05-29T11:48:44;4.30;;;3.17;;
2029;SDS011;1020;48.854;8.830;2023-05-29T11:51:11;6.17;;;3.27;;
2029;SDS011;1020;48.854;8.830;2023-05-29T11:53:39;3.37;;;2.97;;
2029;SDS011;1020;48.854;8.830;2023-05-29T11:56:07;3.60;;;3.30;;
2029;SDS011;1020;48.854;8.830;2023-05-29T11:58:37;3.93;;;3.53;;
2029;SDS011;1020;48.854;8.830;2023-05-29T12:01:04;3.37;;;3.17;;
2029;SDS011;1020;48.854;8.830;2023-05-29T12:03:36;4.13;;;3.20;;
2029;SDS011;1020;48.854;8.830;2023-05-29T12:06:03;3.77;;;3.57;;
2029;SDS011;1020;48.854;8.830;2023-05-29T12:08:31;4.00;;;3.33;;
2029;SDS011;1020;48.854;8.830;2023-05-29T12:10:58;3.43;;;3.20;;
2029;SDS011;1020;48.854;8.830;2023-05-29T12:13:25;3.80;;;3.50;;
2029;SDS011;1020;48.854;8.830;2023-05-29T12:15:54;2.87;;;2.63;;
2029;SDS011;1020;48.854;8.830;2023-05-29T12:18:23;3.37;;;3.17;;
2029;SDS011;1020;48.854;8.830;2023-05-29T12:20:51;3.30;;;2.97;;
2029;SDS011;1020;48.854;8.830;2023-05-29T12:23:23;3.50;;;3.20;;
2029;SDS011;1020;48.854;8.830;2023-05-29T12:25:50;4.00;;;3.40;;
2029;SDS011;1020;48.854;8.830;2023-05-29T12:28:17;3.20;;;2.77;;
2029;SDS011;1020;48.854;8.830;2023-05-29T12:30:45;4.00;;;3.37;;
2029;SDS011;1020;48.854;8.830;2023-05-29T12:33:25;3.93;;;2.80;;
2029;SDS011;1020;48.854;8.830;2023-05-29T12:35:54;3.17;;;2.97;;
2029;SDS011;1020;48.854;8.830;2023-05-29T12:38:27;3.53;;;3.23;;
2029;SDS011;1020;48.854;8.830;2023-05-29T12:40:53;3.53;;;3.23;;
2029;SDS011;1020;48.854;8.830;2023-05-29T12:43:21;2.83;;;2.63;;
2029;SDS011;1020;48.854;8.830;2023-05-29T12:45:53;4.43;;;2.83;;
2029;SDS011;1020;48.854;8.830;2023-05-29T12:48:25;3.80;;;3.10;;
2029;SDS011;1020;48.854;8.830;2023-05-29T12:50:53;3.53;;;2.87;;
2029;SDS011;1020;48.854;8.830;2023-05-29T12:53:21;3.10;;;2.80;;
2029;SDS011;1020;48.854;8.830;2023-05-29T12:55:47;3.47;;;3.17;;
2029;SDS011;1020;48.854;8.830;2023-05-29T12:58:15;3.83;;;3.00;;
2029;SDS011;1020;48.854;8.830;2023-05-29T13:00:42;3.10;;;2.80;;
2029;SDS011;1020;48.854;8.830;2023-05-29T13:03:10;4.83;;;2.87;;
2029;SDS011;1020;48.854;8.830;2023-05-29T13:05:38;3.57;;;3.30;;
2029;SDS011;1020;48.854;8.830;2023-05-29T13:08:05;3.33;;;2.80;;
2029;SDS011;1020;48.854;8.830;2023-05-29T13:10:33;4.77;;;3.40;;
2029;SDS011;1020;48.854;8.830;2023-05-29T13:13:00;2.93;;;2.73;;
2029;SDS011;1020;48.854;8.830;2023-05-29T13:15:27;2.80;;;2.60;;
2029;SDS011;1020;48.854;8.830;2023-05-29T13:17:54;3.10;;;2.80;;
2029;SDS011;1020;48.854;8.830;2023-05-29T13:20:20;2.87;;;2.67;;
2029;SDS011;1020;48.854;8.830;2023-05-29T13:22:49;2.70;;;2.50;;
2029;SDS011;1020;48.854;8.830;2023-05-29T13:25:16;2.67;;;2.47;;
2029;SDS011;1020;48.854;8.830;2023-05-29T13:27:46;3.13;;;2.90;;
2029;SDS011;1020;48.854;8.830;2023-05-29T13:30:14;3.10;;;2.90;;
2029;SDS011;1020;48.854;8.830;2023-05-29T13:32:41;3.10;;;2.80;;
2029;SDS011;1020;48.854;8.830;2023-05-29T13:35:08;4.63;;;3.07;;
2029;SDS011;1020;48.854;8.830;2023-05-29T13:37:35;4.63;;;2.87;;
2029;SDS011;1020;48.854;8.830;2023-05-29T13:40:04;3.00;;;2.80;;
2029;SDS011;1020;48.854;8.830;2023-05-29T13:42:34;2.93;;;2.73;;
2029;SDS011;1020;48.854;8.830;2023-05-29T13:45:01;3.53;;;2.87;;
2029;SDS011;1020;48.854;8.830;2023-05-29T13:47:28;3.43;;;3.10;;
2029;SDS011;1020;48.854;8.830;2023-05-29T13:49:57;3.47;;;2.53;;
2029;SDS011;1020;48.854;8.830;2023-05-29T13:52:24;3.00;;;2.80;;
2029;SDS011;1020;48.854;8.830;2023-05-29T13:54:51;3.50;;;3.20;;
2029;SDS011;1020;48.854;8.830;2023-05-29T13:57:19;3.23;;;2.77;;
2029;SDS011;1020;48.854;8.830;2023-05-29T13:59:45;3.50;;;2.53;;
2029;SDS011;1020;48.854;8.830;2023-05-29T14:02:12;3.17;;;2.73;;
2029;SDS011;1020;48.854;8.830;2023-05-29T14:04:39;2.07;;;1.97;;
2029;SDS011;1020;48.854;8.830;2023-05-29T14:07:07;2.83;;;2.53;;
2029;SDS011;1020;48.854;8.830;2023-05-29T14:09:34;2.67;;;2.47;;
2029;SDS011;1020;48.854;8.830;2023-05-29T14:12:01;2.27;;;2.07;;
2029;SDS011;1020;48.854;8.830;2023-05-29T14:14:29;3.40;;;3.10;;
2029;SDS011;1020;48.854;8.830;2023-05-29T14:16:56;3.53;;;2.30;;
2029;SDS011;1020;48.854;8.830;2023-05-29T14:19:23;2.70;;;2.50;;
2029;SDS011;1020;48.854;8.830;2023-05-29T14:21:49;2.40;;;2.20;;
2029;SDS011;1020;48.854;8.830;2023-05-29T14:24:16;2.73;;;2.53;;
2029;SDS011;1020;48.854;8.830;2023-05-29T14:26:43;3.20;;;2.43;;
2029;SDS011;1020;48.854;8.830;2023-05-29T14:29:12;2.20;;;2.10;;
2029;SDS011;1020;48.854;8.830;2023-05-29T14:31:41;3.87;;;2.57;;
2029;SDS011;1020;48.854;8.830;2023-05-29T14:34:08;3.10;;;2.40;;
2029;SDS011;1020;48.854;8.830;2023-05-29T14:36:35;3.10;;;2.90;;
2029;SDS011;1020;48.854;8.830;2023-05-29T14:39:02;3.80;;;2.43;;
2029;SDS011;1020;48.854;8.830;2023-05-29T14:41:29;2.60;;;2.40;;
2029;SDS011;1020;48.854;8.830;2023-05-29T14:43:55;2.60;;;2.40;;
2029;SDS011;1020;48.854;8.830;2023-05-29T14:46:23;2.80;;;2.60;;
2029;SDS011;1020;48.854;8.830;2023-05-29T14:48:52;3.27;;;2.70;;
2029;SDS011;1020;48.854;8.830;2023-05-29T14:51:19;3.00;;;2.77;;
2029;SDS011;1020;48.854;8.830;2023-05-29T14:53:46;2.70;;;2.50;;
2029;SDS011;1020;48.854;8.830;2023-05-29T14:56:12;4.93;;;3.20;;
2029;SDS011;1020;48.854;8.830;2023-05-29T14:58:39;2.70;;;2.50;;
2029;SDS011;1020;48.854;8.830;2023-05-29T15:01:07;3.00;;;2.80;;
2029;SDS011;1020;48.854;8.830;2023-05-29T15:03:33;2.73;;;2.53;;
2029;SDS011;1020;48.854;8.830;2023-05-29T15:06:02;2.73;;;2.53;;
2029;SDS011;1020;48.854;8.830;2023-05-29T15:08:29;2.93;;;2.73;;
2029;SDS011;1020;48.854;8.830;2023-05-29T15:10:59;3.47;;;2.57;;
2029;SDS011;1020;48.854;8.830;2023-05-29T15:13:26;2.60;;;2.50;;
2029;SDS011;1020;48.854;8.830;2023-05-29T15:15:53;2.87;;;2.63;;
2029;SDS011;1020;48.854;8.830;2023-05-29T15:18:19;3.30;;;3.00;;
2029;SDS011;1020;48.854;8.830;2023-05-29T15:20:46;2.30;;;2.10;;
2029;SDS011;1020;48.854;8.830;2023-05-29T15:23:14;3.70;;;2.70;;